Relevés horaires Bierset (Belgique)


Relevés horaires à Bierset - Vendredi 18 Déc. 2020
Heure UTC1 Température [°C] Vent [km/h] Hum. [%] Pres.4 [hPa] Visi. [Km] Nébu. [octa] Préc.5 [mm] Cond.
2m. Res. Ros. Dir.2 Vit. Moy. Raf.3
23:00 7.0 5.2 4.8 SSE 9.3 11.1 24.1 86 1016.6(-1.7/3h) 30 1/8 -- --
22:00 6.9 5.1 4.9 S 9.3 9.3 16.7 87 1017.1(-1.6/3h) 30 1/8 -- --
21:00 7.1 5.7 5.2 SSE 7.4 11.1 20.4 88 1017.8(-1.2/3h) 30 2/8 -- --
20:00 7.5 5.4 5.6 SSE 11.1 11.1 20.4 88 1018.3(-1.0/3h) 30 2/8 -- --
19:00 7.7 5.7 5.9 S 11.1 11.1 18.5 88 1018.7(0.0/3h) 30 2/8 -- --
18:00 7.9 5.9 5.5 S 11.1 16.7 24.1 85 1018.9(0.3/3h) 30 2/8 0/12h
--
17:00 8.6 6.8 5.9 S 11.1 11.1 16.7 83 1019.2(0.5/3h) 30 3/8 -- --
16:00 9.6 8 5.8 S 11.1 14.8 24.1 77 1018.5(-1.0/3h) 30 3/8 -- --
15:00 10.2 8.4 4.9 S 13.0 16.7 24.1 70 1018.5(-2.5/3h) 30 3/8 -- --
14:00 10.6 8.9 4.9 S 13.0 13.0 24.1 68 1018.5(-3.3/3h) 30 1/8 -- --
13:00 10.7 9 4.4 S 13.0 16.7 24.1 65 1019.5(-2.3/3h) 30 1/8 -- --
12:00 9.9 8.1 5.2 S 13.0 13.0 20.4 73 1021.1(-0.7/3h) 30 3/8 0/6h
--
11:00 9.5 7.6 5.7 S 13.0 13.0 18.5 77 1022(0.4/3h) 30 3/8 -- --
10:00 8.5 6.3 5.9 S 13.0 13.0 18.5 84 1022(-0.1/3h) 30 2/8 -- --
09:00 7.3 5.2 5.5 S 11.1 13.0 18.5 88 1022(0.0/3h) 30 2/8 -- --
08:00 7.3 5.5 5.9 S 9.3 13.0 18.5 91 1021.7(-0.4/3h) 30 3/8 -- --
07:00 7.6 5.6 5.9 SSO 11.1 11.1 18.5 89 1022(-0.3/3h) 30 7/8 -- --
06:00 7.2 5.4 5.7 S 9.3 11.1 16.7 90 1022(-0.5/3h) 30 4/8 0/12h
--
05:00 6.6 4.7 5.4 S 9.3 9.3 14.8 92 1022.2(-0.8/3h) 30 2/8 -- --
04:00 6.4 4.9 5.2 S 7.4 9.3 16.7 92 1022.4(-0.6/3h) 30 2/8 -- --
03:00 6.4 4.9 5.1 S 7.4 9.3 14.8 91 1022.6(-0.6/3h) 30 2/8 -- --
02:00 6.3 4.8 4.8 S 7.4 9.3 13.0 90 1023(-0.4/3h) 30 2/8 -- --
01:00 6.7 4.8 5.2 S 9.3 9.3 14.8 90 1023(-0.3/3h) 30 2/8 -- --
00:00 6.4 4.5 5.2 S 9.3 11.1 16.7 92 1023.2(0.0/3h) 30 2/8 0/6h
1.2/24h
--

1 Coordinated Universal Time. Actuellement il est 06:00 locale et 05:00 UTC.

2 Le vent souffle depuis la direction indiquée vers la direction oposée.

3 Les rafales max. sont disponible 40 min après l'heure du relevé.

4 Pour les stations d'altitude (plus de 600m) le géopotentiel du niveau le plus proche de la pression obligatoire est indiqué.

5 Les stations disposant d'un diffuseur peuvent indiquer "trace". Cela signifie que des précipitations ont touchés le sol mais que la quantité est inférieure à 0.1 mm.

Récapitulatif de la journée
Température [°C] Vent [km/h] Ensoleillement4 [h] Precipitations totale5 [mm] Pression [Hpa]
Min1 Max.2 Moy.3 Max. Min Max.
6.1 10.9 12 24.1 0 h 0 min 0 1016.6 1023.2

1 Température minimale relevée entre 18:00 UTC la veille et 18:00 UTC le jour donné.

2 Température maximale relevée entre 06:00 UTC le jour donné et 06:00 UTC le lendemain.

3 Vent moyen de la journée basé sur les relevés horaires.

4 Ensoleillement en heures relevé entre 06:00 UTC la veille et 06:00 UTC le jour donné.

5 Précipitations totales tombées entre 06:00 UTC la jour donné et 06:00 UTC le lendemain.

Graphiques horaires